This is the latest recevied weather packets stored in our database for station/object DO7ZT-10. If no packets are shown the sender has not sent any weather packets the latest 1 day(s).
| Time | Temp. | Humidity | Pressure | Rain* | Wind** | Luminosity | Snow |
|---|---|---|---|---|---|---|---|
| 1778044722 | 12.22° C | 100% | 1005.2 hPa | - | - | - | - |
| 1778043822 | 11.67° C | 100% | 1005.1 hPa | - | - | - | - |
| 1778042922 | 11.67° C | 100% | 1005 hPa | - | - | - | - |
| 1778042022 | 11.67° C | 100% | 1005 hPa | - | - | - | - |
| 1778041122 | 11.67° C | 100% | 1004.9 hPa | - | - | - | - |
| 1778040222 | 11.67° C | 100% | 1005 hPa | - | - | - | - |
| 1778037521 | 12.22° C | 100% | 1005.2 hPa | - | - | - | - |
| 1778035721 | 12.22° C | 100% | 1005.2 hPa | - | - | - | - |
| 1778034821 | 12.78° C | 100% | 1005.2 hPa | - | - | - | - |
| 1778033921 | 12.78° C | 100% | 1005.2 hPa | - | - | - | - |
| 1778033021 | 12.22° C | 100% | 1005.1 hPa | - | - | - | - |
| 1778032121 | 12.78° C | 100% | 1005.1 hPa | - | - | - | - |
| 1778031221 | 12.78° C | 100% | 1005.1 hPa | - | - | - | - |
| 1778030321 | 12.78° C | 100% | 1005.2 hPa | - | - | - | - |
| 1778029421 | 12.78° C | 100% | 1005.2 hPa | - | - | - | - |
| 1778028521 | 12.78° C | 100% | 1005.3 hPa | - | - | - | - |
| 1778027621 | 12.78° C | 100% | 1005.4 hPa | - | - | - | - |
| 1778026721 | 13.33° C | 100% | 1005.6 hPa | - | - | - | - |
| 1778019520 | 15° C | 88% | 1006 hPa | - | - | - | - |
| 1778018620 | 15° C | 85% | 1005.7 hPa | - | - | - | - |
| 1778017720 | 15.56° C | 79% | 1005.9 hPa | - | - | - | - |
| 1778016820 | 15.56° C | 77% | 1005.9 hPa | - | - | - | - |
| 1778015920 | 16.11° C | 76% | 1005.7 hPa | - | - | - | - |
| 1778015020 | 16.11° C | 76% | 1005.9 hPa | - | - | - | - |
* Rain since midnight (hover to see other rain measurements)
** Current wind speed in m/s (hover to see current wind gust speed)